Time,TemperatureF,DewpointF,PressureIn,WindDirection,WindDirectionDegrees,WindSpeedMPH,WindSpeedGustMPH,Humidity,HourlyPrecipIn,Conditions,Clouds,dailyrainin,SoftwareType,DateUTC
2013-12-10 00:02:00,13.6,-2.8,30.36,WNW,292,0.0,0.9,47,0.00,,---,0.00,VWS V14.01,2013-12-10 06:02:00,
2013-12-10 00:08:00,13.6,-2.8,30.36,WNW,292,4.3,7.6,47,0.00,,---,0.00,VWS V14.01,2013-12-10 06:08:00,
2013-12-10 00:14:00,13.5,-3.0,30.36,WNW,292,1.6,4.0,47,0.00,,---,0.00,VWS V14.01,2013-12-10 06:14:00,
2013-12-10 00:19:00,13.3,-3.2,30.36,West,270,3.8,4.3,47,0.00,,---,0.00,VWS V14.01,2013-12-10 06:19:00,
2013-12-10 00:25:00,12.9,-3.5,30.36,West,270,2.5,5.6,47,0.00,,---,0.00,VWS V14.01,2013-12-10 06:25:00,
2013-12-10 00:30:00,12.9,-3.5,30.36,West,270,1.3,2.9,47,0.00,,---,0.00,VWS V14.01,2013-12-10 06:30:00,
2013-12-10 00:36:00,12.9,-3.5,30.36,West,270,2.9,2.9,47,0.00,,---,0.00,VWS V14.01,2013-12-10 06:36:00,
2013-12-10 00:41:00,13.1,-3.3,30.36,SW,225,3.8,4.9,47,0.00,,---,0.00,VWS V14.01,2013-12-10 06:41:00,
2013-12-10 00:46:00,13.1,-3.3,30.36,WNW,292,4.0,4.0,47,0.00,,---,0.00,VWS V14.01,2013-12-10 06:46:00,
2013-12-10 00:51:00,13.3,-3.2,30.36,WSW,248,7.8,7.8,47,0.00,,---,0.00,VWS V14.01,2013-12-10 06:51:00,
2013-12-10 00:57:00,13.3,-3.2,30.36,SW,225,0.0,3.1,47,0.00,,---,0.00,VWS V14.01,2013-12-10 06:57:00,
2013-12-10 01:03:00,12.9,-3.5,30.36,SW,225,0.9,0.9,47,0.00,,---,0.00,VWS V14.01,2013-12-10 07:03:00,
2013-12-10 01:08:00,12.7,-3.7,30.36,West,270,0.0,2.2,47,0.00,,---,0.00,VWS V14.01,2013-12-10 07:08:00,
2013-12-10 01:14:00,12.4,-4.0,30.36,West,270,0.0,0.0,47,0.00,,---,0.00,VWS V14.01,2013-12-10 07:14:00,
2013-12-10 01:19:00,12.0,-4.3,30.36,WSW,248,2.7,2.7,47,0.00,,---,0.00,VWS V14.01,2013-12-10 07:19:00,
2013-12-10 01:25:00,12.0,-4.3,30.36,SW,225,0.0,1.6,47,0.00,,---,0.00,VWS V14.01,2013-12-10 07:25:00,
2013-12-10 01:30:00,12.0,-4.3,30.36,WSW,248,1.1,2.2,47,0.00,,---,0.00,VWS V14.01,2013-12-10 07:30:00,
2013-12-10 01:35:00,11.8,-4.5,30.36,SSW,202,0.0,2.5,47,0.00,,---,0.00,VWS V14.01,2013-12-10 07:35:00,
2013-12-10 01:41:00,11.3,-5.0,30.36,SSW,202,0.0,0.0,47,0.00,,---,0.00,VWS V14.01,2013-12-10 07:41:00,
2013-12-10 01:46:00,11.1,-5.2,30.36,WNW,292,1.3,1.3,47,0.00,,---,0.00,VWS V14.01,2013-12-10 07:46:00,
2013-12-10 01:51:00,10.6,-5.7,30.36,WNW,292,0.0,0.0,47,0.00,,---,0.00,VWS V14.01,2013-12-10 07:51:00,
2013-12-10 01:56:00,10.4,-5.8,30.36,SW,225,0.0,2.7,47,0.00,,---,0.00,VWS V14.01,2013-12-10 07:56:00,
2013-12-10 02:01:00,10.8,-5.5,30.36,SSW,202,0.0,0.0,47,0.00,,---,0.00,VWS V14.01,2013-12-10 08:01:00,
2013-12-10 02:07:00,10.8,-5.5,30.36,SSW,202,0.0,0.0,47,0.00,,---,0.00,VWS V14.01,2013-12-10 08:07:00,
2013-12-10 02:12:00,10.8,-5.5,30.36,WSW,248,1.6,2.2,47,0.00,,---,0.00,VWS V14.01,2013-12-10 08:12:00,
2013-12-10 02:17:00,10.8,-5.5,30.36,SW,225,1.1,2.5,47,0.00,,---,0.00,VWS V14.01,2013-12-10 08:17:00,
2013-12-10 02:22:00,10.9,-5.3,30.36,SW,225,1.3,2.5,47,0.00,,---,0.00,VWS V14.01,2013-12-10 08:22:00,
2013-12-10 02:28:00,10.9,-5.3,30.33,SW,225,0.0,0.0,47,0.00,,---,0.00,VWS V14.01,2013-12-10 08:28:00,
2013-12-10 02:34:00,10.9,-5.3,30.33,WSW,248,0.0,0.0,47,0.00,,---,0.00,VWS V14.01,2013-12-10 08:34:00,
2013-12-10 02:39:00,10.9,-5.3,30.36,SSW,202,0.0,0.9,47,0.00,,---,0.00,VWS V14.01,2013-12-10 08:39:00,
2013-12-10 02:45:00,11.1,-5.2,30.36,SW,225,0.9,2.0,47,0.00,,---,0.00,VWS V14.01,2013-12-10 08:45:00,
2013-12-10 02:50:00,10.9,-5.3,30.36,SW,225,0.0,0.9,47,0.00,,---,0.00,VWS V14.01,2013-12-10 08:50:00,
2013-12-10 02:56:00,10.4,-5.8,30.33,South,180,0.0,1.1,47,0.00,,---,0.00,VWS V14.01,2013-12-10 08:56:00,
2013-12-10 03:01:00,10.0,-6.2,30.33,SSW,202,0.0,0.0,47,0.00,,---,0.00,VWS V14.01,2013-12-10 09:01:00,
2013-12-10 03:04:00,9.7,-6.5,30.33,South,180,0.0,0.9,47,0.00,,---,0.00,VWS V14.01,2013-12-10 09:04:00,
2013-12-10 03:10:00,9.5,-6.7,30.33,South,180,0.0,1.1,47,0.00,,---,0.00,VWS V14.01,2013-12-10 09:10:00,
2013-12-10 03:15:00,9.3,-6.8,30.33,South,180,0.0,0.0,47,0.00,,---,0.00,VWS V14.01,2013-12-10 09:15:00,
2013-12-10 03:20:00,9.1,-7.0,30.33,South,180,0.0,0.0,47,0.00,,---,0.00,VWS V14.01,2013-12-10 09:20:00,
2013-12-10 03:25:00,8.8,-7.3,30.30,SE,135,0.0,0.0,47,0.00,,---,0.00,VWS V14.01,2013-12-10 09:25:00,
2013-12-10 03:31:00,8.6,-7.5,30.30,SSE,158,0.0,0.0,47,0.00,,---,0.00,VWS V14.01,2013-12-10 09:31:00,
2013-12-10 03:36:00,8.4,-7.7,30.30,South,180,0.0,2.7,47,0.00,,---,0.00,VWS V14.01,2013-12-10 09:36:00,
2013-12-10 03:42:00,8.6,-7.5,30.30,South,180,0.0,2.2,47,0.00,,---,0.00,VWS V14.01,2013-12-10 09:42:00,
2013-12-10 03:48:00,8.1,-8.0,30.30,SSW,202,0.0,0.0,47,0.00,,---,0.00,VWS V14.01,2013-12-10 09:48:00,
2013-12-10 03:53:00,7.7,-8.3,30.30,SW,225,0.0,0.0,47,0.00,,---,0.00,VWS V14.01,2013-12-10 09:53:00,
2013-12-10 03:59:00,8.1,-8.0,30.30,SSW,202,0.0,0.0,47,0.00,,---,0.00,VWS V14.01,2013-12-10 09:59:00,
2013-12-10 04:05:00,8.2,-7.8,30.30,SSW,202,0.0,2.2,47,0.00,,---,0.00,VWS V14.01,2013-12-10 10:05:00,
2013-12-10 04:10:00,8.1,-8.0,30.33,SSW,202,0.9,0.9,47,0.00,,---,0.00,VWS V14.01,2013-12-10 10:10:00,
2013-12-10 04:16:00,8.2,-7.8,30.33,SSW,202,2.7,2.7,47,0.00,,---,0.00,VWS V14.01,2013-12-10 10:16:00,
2013-12-10 04:21:00,8.4,-7.7,30.33,South,180,1.6,2.5,47,0.00,,---,0.00,VWS V14.01,2013-12-10 10:21:00,
2013-12-10 04:27:00,8.4,-7.7,30.33,SSW,202,0.0,0.0,47,0.00,,---,0.00,VWS V14.01,2013-12-10 10:27:00,
2013-12-10 04:32:00,8.4,-7.7,30.33,SSW,202,2.7,2.7,47,0.00,,---,0.00,VWS V14.01,2013-12-10 10:32:00,
2013-12-10 04:38:00,8.6,-7.5,30.33,SW,225,0.0,0.0,47,0.00,,---,0.00,VWS V14.01,2013-12-10 10:38:00,
2013-12-10 04:44:00,8.6,-7.5,30.33,WSW,248,0.0,3.4,47,0.00,,---,0.00,VWS V14.01,2013-12-10 10:44:00,
2013-12-10 04:49:00,8.8,-7.3,30.33,SSW,202,0.0,2.0,47,0.00,,---,0.00,VWS V14.01,2013-12-10 10:49:00,
2013-12-10 04:54:00,8.8,-7.3,30.33,SW,225,2.2,2.7,47,0.00,,---,0.00,VWS V14.01,2013-12-10 10:54:00,
2013-12-10 04:59:00,8.8,-7.3,30.33,SW,225,1.3,1.3,47,0.00,,---,0.00,VWS V14.01,2013-12-10 10:59:00,
2013-12-10 05:05:00,8.8,-7.3,30.33,SW,225,0.0,0.0,47,0.00,,---,0.00,VWS V14.01,2013-12-10 11:05:00,
2013-12-10 05:10:00,8.8,-7.3,30.33,SSW,202,0.9,1.1,47,0.00,,---,0.00,VWS V14.01,2013-12-10 11:10:00,
2013-12-10 05:16:00,8.4,-7.7,30.33,WSW,248,0.0,0.0,47,0.00,,---,0.00,VWS V14.01,2013-12-10 11:16:00,
2013-12-10 05:21:00,8.2,-7.8,30.33,WSW,248,0.0,0.0,47,0.00,,---,0.00,VWS V14.01,2013-12-10 11:21:00,
2013-12-10 05:27:00,8.4,-7.7,30.36,SSW,202,0.0,0.0,47,0.00,,---,0.00,VWS V14.01,2013-12-10 11:27:00,
2013-12-10 05:32:00,8.1,-8.0,30.36,West,270,0.0,0.0,47,0.00,,---,0.00,VWS V14.01,2013-12-10 11:32:00,
2013-12-10 05:37:00,8.2,-7.8,30.36,WSW,248,0.0,1.3,47,0.00,,---,0.00,VWS V14.01,2013-12-10 11:37:00,
2013-12-10 05:43:00,9.1,-7.0,30.33,WNW,292,0.0,3.4,47,0.00,,---,0.00,VWS V14.01,2013-12-10 11:43:00,
2013-12-10 05:48:00,9.5,-6.7,30.33,WNW,292,0.0,0.0,47,0.00,,---,0.00,VWS V14.01,2013-12-10 11:48:00,
2013-12-10 05:54:00,10.4,-5.8,30.33,West,270,2.7,2.7,47,0.00,,---,0.00,VWS V14.01,2013-12-10 11:54:00,
2013-12-10 05:59:00,10.8,-5.5,30.33,SSE,158,0.0,0.0,47,0.00,,---,0.00,VWS V14.01,2013-12-10 11:59:00,
2013-12-10 06:05:00,10.8,-5.5,30.33,SSE,158,0.0,1.6,47,0.00,,---,0.00,VWS V14.01,2013-12-10 12:05:00,
2013-12-10 06:10:00,10.2,-6.0,30.33,South,180,0.0,1.1,47,0.00,,---,0.00,VWS V14.01,2013-12-10 12:10:00,
2013-12-10 06:16:00,10.0,-6.2,30.33,SSW,202,0.0,2.0,47,0.00,,---,0.00,VWS V14.01,2013-12-10 12:16:00,
2013-12-10 06:21:00,10.2,-6.0,30.33,SSW,202,2.7,2.7,47,0.00,,---,0.00,VWS V14.01,2013-12-10 12:21:00,
2013-12-10 06:26:00,10.0,-6.2,30.33,SSE,158,0.0,0.0,47,0.00,,---,0.00,VWS V14.01,2013-12-10 12:26:00,
2013-12-10 06:31:00,9.9,-6.3,30.33,SW,225,0.0,0.0,47,0.00,,---,0.00,VWS V14.01,2013-12-10 12:31:00,
2013-12-10 06:37:00,9.5,-6.7,30.33,West,270,1.1,1.1,47,0.00,,---,0.00,VWS V14.01,2013-12-10 12:37:00,
2013-12-10 06:42:00,9.9,-6.3,30.33,WNW,292,0.0,2.0,47,0.00,,---,0.00,VWS V14.01,2013-12-10 12:42:00,
2013-12-10 06:47:00,10.6,-5.7,30.33,NW,315,2.0,2.9,47,0.00,,---,0.00,VWS V14.01,2013-12-10 12:47:00,
2013-12-10 06:52:00,11.1,-5.2,30.33,WNW,292,4.3,4.3,47,0.00,,---,0.00,VWS V14.01,2013-12-10 12:52:00,
2013-12-10 06:58:00,11.8,-4.5,30.33,WNW,292,0.0,4.0,47,0.00,,---,0.00,VWS V14.01,2013-12-10 12:58:00,
2013-12-10 07:03:00,12.2,-4.2,30.33,West,270,0.0,3.4,47,0.00,,---,0.00,VWS V14.01,2013-12-10 13:03:00,
2013-12-10 07:08:00,12.2,-4.2,30.33,WSW,248,0.0,1.6,47,0.00,,---,0.00,VWS V14.01,2013-12-10 13:08:00,
2013-12-10 07:14:00,12.4,-4.0,30.33,West,270,1.1,1.1,47,0.00,,---,0.00,VWS V14.01,2013-12-10 13:14:00,
2013-12-10 07:19:00,12.2,-4.2,30.33,West,270,0.0,0.0,47,0.00,,---,0.00,VWS V14.01,2013-12-10 13:19:00,
2013-12-10 07:24:00,12.6,-3.8,30.36,South,180,0.9,1.6,47,0.00,,---,0.00,VWS V14.01,2013-12-10 13:24:00,
2013-12-10 07:29:00,12.6,-3.8,30.36,SW,225,0.0,0.0,47,0.00,,---,0.00,VWS V14.01,2013-12-10 13:29:00,
2013-12-10 07:34:00,12.2,-4.2,30.36,WSW,248,0.0,0.0,47,0.00,,---,0.00,VWS V14.01,2013-12-10 13:34:00,
2013-12-10 07:40:00,12.2,-4.2,30.36,South,180,0.0,0.0,47,0.00,,---,0.00,VWS V14.01,2013-12-10 13:40:00,
2013-12-10 07:46:00,12.9,-3.5,30.36,SSW,202,0.0,1.1,47,0.00,,---,0.00,VWS V14.01,2013-12-10 13:46:00,
2013-12-10 07:51:00,13.3,-3.2,30.36,SSW,202,0.9,0.9,47,0.00,,---,0.00,VWS V14.01,2013-12-10 13:51:00,
2013-12-10 07:56:00,13.8,-2.7,30.36,South,180,2.7,3.1,47,0.00,,---,0.00,VWS V14.01,2013-12-10 13:56:00,
2013-12-10 08:01:00,13.8,1.4,30.36,SW,225,6.3,6.3,57,0.00,,---,0.00,VWS V14.01,2013-12-10 14:01:00,
2013-12-10 08:07:00,14.9,2.0,30.36,SSW,202,0.0,2.2,56,0.00,,---,0.00,VWS V14.01,2013-12-10 14:07:00,
2013-12-10 08:12:00,15.4,2.6,30.39,WSW,248,1.6,3.6,56,0.00,,---,0.00,VWS V14.01,2013-12-10 14:12:00,
2013-12-10 08:18:00,17.1,3.7,30.39,South,180,1.3,1.3,55,0.00,,---,0.00,VWS V14.01,2013-12-10 14:18:00,
2013-12-10 08:23:00,16.3,2.6,30.39,SSE,158,3.1,5.6,54,0.00,,---,0.00,VWS V14.01,2013-12-10 14:23:00,
2013-12-10 08:29:00,17.6,3.8,30.36,SSW,202,2.7,2.7,54,0.00,,---,0.00,VWS V14.01,2013-12-10 14:29:00,
2013-12-10 08:34:00,17.8,3.6,30.36,SSW,202,2.9,2.9,53,0.00,,---,0.00,VWS V14.01,2013-12-10 14:34:00,
2013-12-10 08:39:00,18.1,3.9,30.36,WSW,248,1.3,1.3,53,0.00,,---,0.00,VWS V14.01,2013-12-10 14:39:00,
2013-12-10 08:45:00,20.5,6.1,30.36,West,270,3.1,3.1,53,0.00,,---,0.00,VWS V14.01,2013-12-10 14:45:00,
2013-12-10 08:50:00,22.1,7.6,30.36,NW,315,0.0,0.0,53,0.00,,---,0.00,VWS V14.01,2013-12-10 14:50:00,
2013-12-10 08:55:00,23.2,8.2,30.36,ENE,68,0.0,0.0,52,0.00,,---,0.00,VWS V14.01,2013-12-10 14:55:00,
2013-12-10 09:00:00,24.3,9.6,30.36,NW,315,1.6,3.1,53,0.00,,---,0.00,VWS V14.01,2013-12-10 15:00:00,
2013-12-10 09:05:00,25.0,9.9,30.36,WNW,292,0.0,0.0,52,0.00,,---,0.00,VWS V14.01,2013-12-10 15:05:00,
2013-12-10 09:11:00,23.7,7.8,30.36,South,180,2.5,2.5,50,0.00,,---,0.00,VWS V14.01,2013-12-10 15:11:00,
2013-12-10 09:16:00,23.7,7.8,30.36,SSW,202,0.0,2.0,50,0.00,,---,0.00,VWS V14.01,2013-12-10 15:16:00,
2013-12-10 09:21:00,25.7,9.6,30.36,WSW,248,0.0,2.9,50,0.00,,---,0.00,VWS V14.01,2013-12-10 15:21:00,
2013-12-10 09:26:00,25.2,8.7,30.36,SSW,202,2.7,3.1,49,0.00,,---,0.00,VWS V14.01,2013-12-10 15:26:00,
2013-12-10 09:32:00,25.9,8.9,30.36,SSE,158,0.0,0.0,48,0.00,,---,0.00,VWS V14.01,2013-12-10 15:32:00,
2013-12-10 09:38:00,27.3,9.8,30.36,South,180,4.9,4.9,47,0.00,,---,0.00,VWS V14.01,2013-12-10 15:38:00,
2013-12-10 09:43:00,26.6,9.1,30.39,SSW,202,0.9,2.5,47,0.00,,---,0.00,VWS V14.01,2013-12-10 15:43:00,
2013-12-10 09:48:00,27.7,10.1,30.39,South,180,1.1,3.4,47,0.00,,---,0.00,VWS V14.01,2013-12-10 15:48:00,
2013-12-10 09:53:00,26.6,9.1,30.39,SSE,158,2.9,4.0,47,0.00,,---,0.00,VWS V14.01,2013-12-10 15:53:00,
2013-12-10 09:58:00,26.1,8.6,30.39,SSW,202,2.7,4.3,47,0.00,,---,0.00,VWS V14.01,2013-12-10 15:58:00,
2013-12-10 10:03:00,26.4,8.9,30.39,SSE,158,3.1,4.3,47,0.00,,---,0.00,VWS V14.01,2013-12-10 16:03:00,
2013-12-10 10:09:00,27.5,9.9,30.36,South,180,2.7,3.1,47,0.00,,---,0.00,VWS V14.01,2013-12-10 16:09:00,
2013-12-10 10:14:00,28.4,10.8,30.36,South,180,3.1,4.3,47,0.00,,---,0.00,VWS V14.01,2013-12-10 16:14:00,
2013-12-10 10:20:00,29.3,11.1,30.36,SSE,158,1.3,1.3,46,0.00,,---,0.00,VWS V14.01,2013-12-10 16:20:00,
2013-12-10 10:25:00,30.2,11.9,30.36,SSW,202,1.1,2.2,46,0.00,,---,0.00,VWS V14.01,2013-12-10 16:25:00,
2013-12-10 10:31:00,31.1,12.2,30.36,SE,135,1.6,2.5,45,0.00,,---,0.00,VWS V14.01,2013-12-10 16:31:00,
2013-12-10 10:36:00,31.3,12.4,30.36,SSE,158,2.5,2.9,45,0.00,,---,0.00,VWS V14.01,2013-12-10 16:36:00,
2013-12-10 10:41:00,31.6,12.8,30.36,SE,135,3.4,3.4,45,0.00,,---,0.00,VWS V14.01,2013-12-10 16:41:00,
2013-12-10 10:47:00,31.6,12.2,30.36,South,180,4.9,4.9,44,0.00,,---,0.00,VWS V14.01,2013-12-10 16:47:00,
2013-12-10 10:52:00,31.8,12.4,30.36,SW,225,2.9,4.9,44,0.00,,---,0.00,VWS V14.01,2013-12-10 16:52:00,
2013-12-10 10:58:00,32.2,12.7,30.36,SE,135,2.5,3.4,44,0.00,,---,0.00,VWS V14.01,2013-12-10 16:58:00,
2013-12-10 11:03:00,32.7,12.7,30.36,SSE,158,3.8,6.0,43,0.00,,---,0.00,VWS V14.01,2013-12-10 17:03:00,
2013-12-10 11:09:00,34.0,13.9,30.36,SSW,202,2.0,3.6,43,0.00,,---,0.00,VWS V14.01,2013-12-10 17:09:00,
2013-12-10 11:14:00,34.2,14.0,30.36,South,180,2.0,2.0,43,0.00,,---,0.00,VWS V14.01,2013-12-10 17:14:00,
2013-12-10 11:20:00,34.2,14.0,30.36,ENE,68,0.0,2.0,43,0.00,,---,0.00,VWS V14.01,2013-12-10 17:20:00,
2013-12-10 11:25:00,34.7,14.0,30.33,ESE,112,3.1,3.8,42,0.00,,---,0.00,VWS V14.01,2013-12-10 17:25:00,
2013-12-10 11:31:00,35.4,14.6,30.33,ESE,112,3.8,4.0,42,0.00,,---,0.00,VWS V14.01,2013-12-10 17:31:00,
2013-12-10 11:36:00,35.6,14.2,30.33,SE,135,0.0,4.3,41,0.00,,---,0.00,VWS V14.01,2013-12-10 17:36:00,
2013-12-10 11:42:00,35.8,14.4,30.33,South,180,6.3,6.3,41,0.00,,---,0.00,VWS V14.01,2013-12-10 17:42:00,
2013-12-10 11:48:00,36.3,14.9,30.33,SSE,158,1.3,2.9,41,0.00,,---,0.00,VWS V14.01,2013-12-10 17:48:00,
2013-12-10 11:53:00,36.7,15.2,30.33,SE,135,4.0,5.4,41,0.00,,---,0.00,VWS V14.01,2013-12-10 17:53:00,
2013-12-10 11:59:00,37.2,15.7,30.33,ESE,112,0.0,0.0,41,0.00,,---,0.00,VWS V14.01,2013-12-10 17:59:00,
2013-12-10 12:05:00,38.1,15.9,30.33,SSW,202,2.0,2.2,40,0.00,,---,0.00,VWS V14.01,2013-12-10 18:05:00,
2013-12-10 12:10:00,39.4,17.1,30.30,East,90,2.9,2.9,40,0.00,,---,0.00,VWS V14.01,2013-12-10 18:10:00,
2013-12-10 12:16:00,39.9,17.0,30.30,South,180,2.7,4.0,39,0.00,,---,0.00,VWS V14.01,2013-12-10 18:16:00,
2013-12-10 12:21:00,39.9,17.0,30.30,ESE,112,2.7,3.4,39,0.00,,---,0.00,VWS V14.01,2013-12-10 18:21:00,
2013-12-10 12:27:00,40.1,16.5,30.30,SSW,202,3.4,4.7,38,0.00,,---,0.00,VWS V14.01,2013-12-10 18:27:00,
2013-12-10 12:32:00,40.3,16.7,30.30,SSW,202,3.1,4.9,38,0.00,,---,0.00,VWS V14.01,2013-12-10 18:32:00,
2013-12-10 12:38:00,41.0,16.1,30.30,South,180,0.0,2.9,36,0.00,,---,0.00,VWS V14.01,2013-12-10 18:38:00,
2013-12-10 12:43:00,41.0,15.5,30.24,South,180,3.4,4.9,35,0.00,,---,0.00,VWS V14.01,2013-12-10 18:43:00,
2013-12-10 12:48:00,40.6,15.1,30.24,South,180,1.3,3.1,35,0.00,,---,0.00,VWS V14.01,2013-12-10 18:48:00,
2013-12-10 12:53:00,41.2,15.0,30.24,SSE,158,5.8,5.8,34,0.00,,---,0.00,VWS V14.01,2013-12-10 18:53:00,
2013-12-10 12:59:00,41.2,14.3,30.27,SW,225,3.8,5.4,33,0.00,,---,0.00,VWS V14.01,2013-12-10 18:59:00,
2013-12-10 13:05:00,41.4,14.4,30.27,South,180,2.0,3.6,33,0.00,,---,0.00,VWS V14.01,2013-12-10 19:05:00,
2013-12-10 13:10:00,41.7,14.8,30.27,SW,225,2.5,3.8,33,0.00,,---,0.00,VWS V14.01,2013-12-10 19:10:00,
2013-12-10 13:16:00,41.9,13.5,30.27,SSW,202,4.0,4.0,31,0.00,,---,0.00,VWS V14.01,2013-12-10 19:16:00,
2013-12-10 13:22:00,42.1,13.6,30.27,ESE,112,1.1,4.0,31,0.00,,---,0.00,VWS V14.01,2013-12-10 19:22:00,
2013-12-10 13:27:00,42.1,12.9,30.27,SSE,158,5.4,5.8,30,0.00,,---,0.00,VWS V14.01,2013-12-10 19:27:00,
2013-12-10 13:33:00,42.3,12.3,30.27,SSW,202,6.3,9.4,29,0.00,,---,0.00,VWS V14.01,2013-12-10 19:33:00,
2013-12-10 13:38:00,42.8,12.8,30.27,SE,135,2.9,4.7,29,0.00,,---,0.00,VWS V14.01,2013-12-10 19:38:00,
2013-12-10 13:44:00,43.0,12.9,30.24,SSW,202,4.3,5.8,29,0.00,,---,0.00,VWS V14.01,2013-12-10 19:44:00,
2013-12-10 13:50:00,43.9,13.7,30.24,South,180,2.9,3.8,29,0.00,,---,0.00,VWS V14.01,2013-12-10 19:50:00,
2013-12-10 13:56:00,43.5,12.6,30.24,WSW,248,1.3,7.6,28,0.00,,---,0.00,VWS V14.01,2013-12-10 19:56:00,
2013-12-10 14:02:00,44.1,10.5,30.24,SSW,202,6.3,6.3,25,0.00,,---,0.00,VWS V14.01,2013-12-10 20:02:00,
2013-12-10 14:07:00,44.1,8.6,30.24,South,180,4.3,9.8,23,0.00,,---,0.00,VWS V14.01,2013-12-10 20:07:00,
2013-12-10 14:12:00,44.2,5.7,30.24,South,180,4.3,8.1,20,0.00,,---,0.00,VWS V14.01,2013-12-10 20:12:00,
2013-12-10 14:17:00,44.2,3.4,30.24,SSW,202,4.0,10.1,18,0.00,,---,0.00,VWS V14.01,2013-12-10 20:17:00,
2013-12-10 14:22:00,44.8,2.6,30.24,SSE,158,2.7,8.7,17,0.00,,---,0.00,VWS V14.01,2013-12-10 20:22:00,
2013-12-10 14:27:00,44.8,2.6,30.21,ESE,112,6.5,9.8,17,0.00,,---,0.00,VWS V14.01,2013-12-10 20:27:00,
2013-12-10 14:33:00,44.8,-8.5,30.21,SSW,202,7.6,10.7,10,0.00,,---,0.00,VWS V14.01,2013-12-10 20:33:00,
2013-12-10 14:38:00,44.2,-11.0,30.21,South,180,10.5,10.5,9,0.00,,---,0.00,VWS V14.01,2013-12-10 20:38:00,
2013-12-10 14:44:00,44.4,-10.9,30.21,SW,225,9.8,12.1,9,0.00,,---,0.00,VWS V14.01,2013-12-10 20:44:00,
2013-12-10 14:50:00,44.2,-11.0,30.21,SSW,202,7.2,10.5,9,0.00,,---,0.00,VWS V14.01,2013-12-10 20:50:00,
2013-12-10 14:55:00,44.2,-11.0,30.21,SSW,202,2.9,8.1,9,0.00,,---,0.00,VWS V14.01,2013-12-10 20:55:00,
2013-12-10 15:00:00,44.1,-11.2,30.21,SSE,158,10.5,10.5,9,0.00,,---,0.00,VWS V14.01,2013-12-10 21:00:00,
2013-12-10 15:05:00,43.7,-9.3,30.21,SW,225,4.3,9.8,10,0.00,,---,0.00,VWS V14.01,2013-12-10 21:05:00,
2013-12-10 15:11:00,43.5,2.8,30.21,SSW,202,3.1,7.6,18,0.00,,---,0.00,VWS V14.01,2013-12-10 21:11:00,
2013-12-10 15:16:00,44.1,3.3,30.21,SW,225,7.4,7.4,18,0.00,,---,0.00,VWS V14.01,2013-12-10 21:16:00,
2013-12-10 15:22:00,43.7,-3.9,30.21,SSW,202,12.1,12.1,13,0.00,,---,0.00,VWS V14.01,2013-12-10 21:22:00,
2013-12-10 15:27:00,43.0,-9.9,30.21,South,180,7.8,8.1,10,0.00,,---,0.00,VWS V14.01,2013-12-10 21:27:00,
2013-12-10 15:32:00,42.6,-10.1,30.21,South,180,6.0,6.0,10,0.00,,---,0.00,VWS V14.01,2013-12-10 21:32:00,
2013-12-10 15:37:00,42.4,-8.4,30.21,South,180,8.5,8.5,11,0.00,,---,0.00,VWS V14.01,2013-12-10 21:37:00,
2013-12-10 15:43:00,42.4,-8.4,30.21,SSW,202,6.3,6.3,11,0.00,,---,0.00,VWS V14.01,2013-12-10 21:43:00,
2013-12-10 15:49:00,41.7,-10.9,30.21,SSW,202,7.8,8.7,10,0.00,,---,0.00,VWS V14.01,2013-12-10 21:49:00,
2013-12-10 15:54:00,41.5,-5.6,30.21,SSE,158,7.2,10.5,13,0.00,,---,0.00,VWS V14.01,2013-12-10 21:54:00,
2013-12-10 15:59:00,40.8,0.6,30.21,South,180,4.0,5.8,18,0.00,,---,0.00,VWS V14.01,2013-12-10 21:59:00,
2013-12-10 16:04:00,39.9,7.8,30.21,South,180,2.5,7.8,26,0.00,,---,0.00,VWS V14.01,2013-12-10 22:04:00,
2013-12-10 16:09:00,39.7,10.1,30.18,SSE,158,4.3,8.5,29,0.00,,---,0.00,VWS V14.01,2013-12-10 22:09:00,
2013-12-10 16:15:00,39.6,10.7,30.18,SSW,202,4.9,7.6,30,0.00,,---,0.00,VWS V14.01,2013-12-10 22:15:00,
2013-12-10 16:20:00,39.2,11.1,30.18,South,180,6.5,8.1,31,0.00,,---,0.00,VWS V14.01,2013-12-10 22:20:00,
2013-12-10 16:25:00,38.7,12.1,30.21,SSW,202,4.0,5.8,33,0.00,,---,0.00,VWS V14.01,2013-12-10 22:25:00,
2013-12-10 16:31:00,38.1,13.5,30.21,SSW,202,3.1,11.0,36,0.00,,---,0.00,VWS V14.01,2013-12-10 22:31:00,
2013-12-10 16:36:00,37.6,14.9,30.21,SSE,158,3.6,9.2,39,0.00,,---,0.00,VWS V14.01,2013-12-10 22:36:00,
2013-12-10 16:42:00,37.0,15.0,30.21,SSW,202,3.1,7.2,40,0.00,,---,0.00,VWS V14.01,2013-12-10 22:42:00,
2013-12-10 16:47:00,36.9,15.4,30.21,South,180,4.3,5.4,41,0.00,,---,0.00,VWS V14.01,2013-12-10 22:47:00,
2013-12-10 16:53:00,36.5,15.1,30.21,SSW,202,3.6,5.8,41,0.00,,---,0.00,VWS V14.01,2013-12-10 22:53:00,
2013-12-10 16:58:00,36.3,15.4,30.21,South,180,7.2,8.5,42,0.00,,---,0.00,VWS V14.01,2013-12-10 22:58:00,
2013-12-10 17:04:00,36.1,16.4,30.21,South,180,7.8,7.8,44,0.00,,---,0.00,VWS V14.01,2013-12-10 23:04:00,
2013-12-10 17:09:00,36.0,16.7,30.21,SW,225,5.6,9.4,45,0.00,,---,0.00,VWS V14.01,2013-12-10 23:09:00,
2013-12-10 17:14:00,35.8,17.0,30.18,South,180,4.3,6.3,46,0.00,,---,0.00,VWS V14.01,2013-12-10 23:14:00,
2013-12-10 17:20:00,35.6,16.9,30.18,SSE,158,3.8,6.3,46,0.00,,---,0.00,VWS V14.01,2013-12-10 23:20:00,
2013-12-10 17:25:00,35.6,16.9,30.21,South,180,7.8,12.1,46,0.00,,---,0.00,VWS V14.01,2013-12-10 23:25:00,
2013-12-10 17:31:00,35.6,16.4,30.21,South,180,7.6,7.6,45,0.00,,---,0.00,VWS V14.01,2013-12-10 23:31:00,
2013-12-10 17:36:00,35.4,16.2,30.21,South,180,4.7,5.8,45,0.00,,---,0.00,VWS V14.01,2013-12-10 23:36:00,
2013-12-10 17:42:00,35.4,15.2,30.18,SE,135,4.9,6.5,43,0.00,,---,0.00,VWS V14.01,2013-12-10 23:42:00,
2013-12-10 17:48:00,35.2,14.5,30.18,SSW,202,5.4,5.4,42,0.00,,---,0.00,VWS V14.01,2013-12-10 23:48:00,
2013-12-10 17:53:00,35.1,13.8,30.18,SSW,202,3.6,8.7,41,0.00,,---,0.00,VWS V14.01,2013-12-10 23:53:00,
2013-12-10 17:59:00,35.1,13.8,30.18,SSW,202,4.9,4.9,41,0.00,,---,0.00,VWS V14.01,2013-12-10 23:59:00,
2013-12-10 18:04:00,34.9,13.0,30.18,SSE,158,5.4,6.0,40,0.00,,---,0.00,VWS V14.01,2013-12-11 00:04:00,
2013-12-10 18:10:00,34.7,12.9,30.21,South,180,2.5,5.4,40,0.00,,---,0.00,VWS V14.01,2013-12-11 00:10:00,
2013-12-10 18:16:00,34.5,12.7,30.21,SSW,202,4.3,4.3,40,0.00,,---,0.00,VWS V14.01,2013-12-11 00:16:00,
2013-12-10 18:21:00,34.5,12.7,30.21,SSW,202,4.3,7.4,40,0.00,,---,0.00,VWS V14.01,2013-12-11 00:21:00,
2013-12-10 18:27:00,34.3,12.5,30.18,South,180,9.4,9.4,40,0.00,,---,0.00,VWS V14.01,2013-12-11 00:27:00,
2013-12-10 18:32:00,34.0,12.2,30.18,SSW,202,2.7,7.2,40,0.00,,---,0.00,VWS V14.01,2013-12-11 00:32:00,
2013-12-10 18:38:00,34.0,12.2,30.18,South,180,8.1,8.1,40,0.00,,---,0.00,VWS V14.01,2013-12-11 00:38:00,
2013-12-10 18:44:00,34.0,12.2,30.15,SSE,158,3.6,7.6,40,0.00,,---,0.00,VWS V14.01,2013-12-11 00:44:00,
2013-12-10 18:49:00,33.3,11.6,30.15,South,180,2.7,3.4,40,0.00,,---,0.00,VWS V14.01,2013-12-11 00:49:00,
2013-12-10 18:55:00,32.7,11.1,30.21,SSW,202,1.1,2.7,40,0.00,,---,0.00,VWS V14.01,2013-12-11 00:55:00,
2013-12-10 19:00:00,32.4,10.8,30.21,SSE,158,3.8,7.4,40,0.00,,---,0.00,VWS V14.01,2013-12-11 01:00:00,
2013-12-10 19:06:00,32.4,11.3,30.21,SSW,202,10.7,10.7,41,0.00,,---,0.00,VWS V14.01,2013-12-11 01:06:00,
2013-12-10 19:12:00,32.2,11.1,30.21,SSW,202,6.0,6.0,41,0.00,,---,0.00,VWS V14.01,2013-12-11 01:12:00,
2013-12-10 19:17:00,31.8,10.8,30.21,SSW,202,5.8,5.8,41,0.00,,---,0.00,VWS V14.01,2013-12-11 01:17:00,
2013-12-10 19:23:00,31.5,10.5,30.21,South,180,4.0,4.0,41,0.00,,---,0.00,VWS V14.01,2013-12-11 01:23:00,
2013-12-10 19:28:00,31.3,10.3,30.21,South,180,4.3,4.3,41,0.00,,---,0.00,VWS V14.01,2013-12-11 01:28:00,
2013-12-10 19:33:00,31.1,10.7,30.21,SSW,202,3.4,6.5,42,0.00,,---,0.00,VWS V14.01,2013-12-11 01:33:00,
2013-12-10 19:38:00,30.9,10.5,30.21,SSW,202,2.9,6.3,42,0.00,,---,0.00,VWS V14.01,2013-12-11 01:38:00,
2013-12-10 19:44:00,30.6,10.2,30.21,SSE,158,5.4,5.4,42,0.00,,---,0.00,VWS V14.01,2013-12-11 01:44:00,
2013-12-10 19:49:00,30.4,10.1,30.21,SSW,202,7.6,10.3,42,0.00,,---,0.00,VWS V14.01,2013-12-11 01:49:00,
2013-12-10 19:55:00,30.2,10.4,30.21,South,180,4.3,6.9,43,0.00,,---,0.00,VWS V14.01,2013-12-11 01:55:00,
2013-12-10 20:01:00,30.0,10.2,30.21,South,180,5.4,8.5,43,0.00,,---,0.00,VWS V14.01,2013-12-11 02:01:00,
2013-12-10 20:07:00,29.8,10.6,30.21,South,180,3.6,6.3,44,0.00,,---,0.00,VWS V14.01,2013-12-11 02:07:00,
2013-12-10 20:13:00,29.7,10.4,30.21,SSW,202,5.6,7.2,44,0.00,,---,0.00,VWS V14.01,2013-12-11 02:13:00,
2013-12-10 20:18:00,29.5,10.8,30.21,South,180,6.3,6.3,45,0.00,,---,0.00,VWS V14.01,2013-12-11 02:18:00,
2013-12-10 20:23:00,29.5,10.8,30.21,SSW,202,5.4,6.9,45,0.00,,---,0.00,VWS V14.01,2013-12-11 02:23:00,
2013-12-10 20:29:00,29.1,10.9,30.24,SSW,202,5.8,11.9,46,0.00,,---,0.00,VWS V14.01,2013-12-11 02:29:00,
2013-12-10 20:34:00,29.1,10.9,30.24,SSW,202,7.6,7.6,46,0.00,,---,0.00,VWS V14.01,2013-12-11 02:34:00,
2013-12-10 20:40:00,28.9,11.2,30.21,SSE,158,5.4,6.5,47,0.00,,---,0.00,VWS V14.01,2013-12-11 02:40:00,
2013-12-10 20:45:00,28.9,11.2,30.21,SW,225,4.0,8.5,47,0.00,,---,0.00,VWS V14.01,2013-12-11 02:45:00,
2013-12-10 20:51:00,28.6,11.4,30.21,SSW,202,5.6,7.8,48,0.00,,---,0.00,VWS V14.01,2013-12-11 02:51:00,
2013-12-10 20:56:00,28.6,11.4,30.21,SSE,158,6.0,8.5,48,0.00,,---,0.00,VWS V14.01,2013-12-11 02:56:00,
2013-12-10 21:02:00,28.8,12.0,30.21,SSW,202,4.0,4.3,49,0.00,,---,0.00,VWS V14.01,2013-12-11 03:02:00,
2013-12-10 21:07:00,28.6,12.3,30.21,South,180,9.2,9.2,50,0.00,,---,0.00,VWS V14.01,2013-12-11 03:07:00,
2013-12-10 21:12:00,28.6,12.3,30.21,SSW,202,9.0,9.0,50,0.00,,---,0.00,VWS V14.01,2013-12-11 03:12:00,
2013-12-10 21:17:00,28.6,12.8,30.21,South,180,3.4,6.0,51,0.00,,---,0.00,VWS V14.01,2013-12-11 03:17:00,
2013-12-10 21:22:00,28.6,12.8,30.21,SSW,202,6.0,6.0,51,0.00,,---,0.00,VWS V14.01,2013-12-11 03:22:00,
2013-12-10 21:27:00,28.4,13.0,30.24,SSW,202,4.3,6.5,52,0.00,,---,0.00,VWS V14.01,2013-12-11 03:27:00,
2013-12-10 21:33:00,28.0,12.7,30.24,SSW,202,4.7,5.4,52,0.00,,---,0.00,VWS V14.01,2013-12-11 03:33:00,
2013-12-10 21:38:00,28.0,12.7,30.24,SSW,202,1.6,4.9,52,0.00,,---,0.00,VWS V14.01,2013-12-11 03:38:00,
2013-12-10 21:44:00,27.9,13.0,30.21,SSW,202,4.9,4.9,53,0.00,,---,0.00,VWS V14.01,2013-12-11 03:44:00,
2013-12-10 21:49:00,27.7,12.8,30.21,SW,225,1.1,2.7,53,0.00,,---,0.00,VWS V14.01,2013-12-11 03:49:00,
2013-12-10 21:54:00,27.5,13.1,30.21,SSE,158,3.6,3.6,54,0.00,,---,0.00,VWS V14.01,2013-12-11 03:54:00,
2013-12-10 22:00:00,27.3,12.9,30.21,SSW,202,2.2,4.0,54,0.00,,---,0.00,VWS V14.01,2013-12-11 04:00:00,
2013-12-10 22:05:00,27.1,12.7,30.21,South,180,2.7,3.6,54,0.00,,---,0.00,VWS V14.01,2013-12-11 04:05:00,
2013-12-10 22:11:00,27.0,13.0,30.21,SSW,202,2.5,3.1,55,0.00,,---,0.00,VWS V14.01,2013-12-11 04:11:00,
2013-12-10 22:16:00,26.8,12.8,30.21,South,180,1.3,2.5,55,0.00,,---,0.00,VWS V14.01,2013-12-11 04:16:00,
2013-12-10 22:22:00,26.6,13.0,30.21,SSW,202,3.4,3.4,56,0.00,,---,0.00,VWS V14.01,2013-12-11 04:22:00,
2013-12-10 22:27:00,26.6,13.4,30.24,SSW,202,2.9,3.8,57,0.00,,---,0.00,VWS V14.01,2013-12-11 04:27:00,
2013-12-10 22:33:00,26.4,13.7,30.24,South,180,2.7,5.6,58,0.00,,---,0.00,VWS V14.01,2013-12-11 04:33:00,
2013-12-10 22:39:00,26.2,13.5,30.24,South,180,1.3,1.6,58,0.00,,---,0.00,VWS V14.01,2013-12-11 04:39:00,
2013-12-10 22:44:00,26.1,13.7,30.24,SSW,202,2.7,6.0,59,0.00,,---,0.00,VWS V14.01,2013-12-11 04:44:00,
2013-12-10 22:50:00,25.9,13.5,30.24,South,180,0.9,2.7,59,0.00,,---,0.00,VWS V14.01,2013-12-11 04:50:00,
2013-12-10 22:55:00,25.9,13.9,30.24,South,180,2.2,3.1,60,0.00,,---,0.00,VWS V14.01,2013-12-11 04:55:00,
2013-12-10 23:01:00,25.7,13.8,30.24,SW,225,2.5,3.6,60,0.00,,---,0.00,VWS V14.01,2013-12-11 05:01:00,
2013-12-10 23:02:00,25.7,13.8,30.24,SSW,202,1.6,4.7,60,0.00,,---,0.00,VWS V14.01,2013-12-11 05:02:00,
2013-12-10 23:03:00,25.5,13.6,30.24,SSW,202,0.0,1.6,60,0.00,,---,0.00,VWS V14.01,2013-12-11 05:03:00,
2013-12-10 23:04:00,25.5,13.6,30.24,South,180,1.6,3.4,60,0.00,,---,0.00,VWS V14.01,2013-12-11 05:04:00,
2013-12-10 23:06:00,25.5,13.6,30.24,SSW,202,0.0,3.1,60,0.00,,---,0.00,VWS V14.01,2013-12-11 05:06:00,
2013-12-10 23:11:00,25.3,13.4,30.24,South,180,1.3,1.3,60,0.00,,---,0.00,VWS V14.01,2013-12-11 05:11:00,
2013-12-10 23:13:00,25.3,13.4,30.24,SSW,202,0.0,4.9,60,0.00,,---,0.00,VWS V14.01,2013-12-11 05:13:00,
2013-12-10 23:18:00,25.0,13.1,30.24,SSW,202,0.0,1.6,60,0.00,,---,0.00,VWS V14.01,2013-12-11 05:18:00,
2013-12-10 23:23:00,24.8,13.3,30.24,South,180,1.1,1.1,61,0.00,,---,0.00,VWS V14.01,2013-12-11 05:23:00,
2013-12-10 23:29:00,24.4,12.6,30.24,South,180,0.9,2.0,60,0.00,,---,0.00,VWS V14.01,2013-12-11 05:29:00,
2013-12-10 23:35:00,24.3,12.4,30.24,South,180,0.0,0.0,60,0.00,,---,0.00,VWS V14.01,2013-12-11 05:35:00,
2013-12-10 23:40:00,24.1,12.6,30.27,SSE,158,0.9,4.3,61,0.00,,---,0.00,VWS V14.01,2013-12-11 05:40:00,
2013-12-10 23:46:00,24.1,13.0,30.27,South,180,2.0,2.0,62,0.00,,---,0.00,VWS V14.01,2013-12-11 05:46:00,
2013-12-10 23:52:00,23.9,12.4,30.27,SSW,202,0.0,1.1,61,0.00,,---,0.00,VWS V14.01,2013-12-11 05:52:00,
2013-12-10 23:57:00,23.9,12.8,30.27,SSW,202,0.0,2.9,62,0.00,,---,0.00,VWS V14.01,2013-12-11 05:57:00,